Time;durP1;ratioP1;P1;durP2;ratioP2;P2;SDS_P1;SDS_P2;PMS_P1;PMS_P2;Temp;Humidity;BMP_temperature;BMP_pressure;BME280_temperature;BME280_humidity;BME280_pressure;Samples;Min_cycle;Max_cycle;Signal;HPM_P1;HPM_P2
2023/04/11 00:01:34;;;;;;;;;;;13.80;99.90;;;;;;5013884;28;19966;-67
2023/04/11 00:04:00;;;;;;;;;;;13.60;99.90;;;;;;5014437;28;19937;-67
2023/04/11 00:06:25;;;;;;;;;;;13.40;99.90;;;;;;5014256;28;19906;-67
2023/04/11 00:08:51;;;;;;;;;;;13.20;99.90;;;;;;5012791;28;20362;-66
2023/04/11 00:11:16;;;;;;;;;;;13.10;99.90;;;;;;5014514;28;20396;-67
2023/04/11 00:13:43;;;;;;;;;;;13.00;99.90;;;;;;5015201;28;19905;-66
2023/04/11 00:16:09;;;;;;;;;;;12.90;99.90;;;;;;5014861;28;20359;-67
2023/04/11 00:18:36;;;;;;;;;;;12.80;99.90;;;;;;5013142;28;20003;-67
2023/04/11 00:21:06;;;;;;;;;;;12.70;99.90;;;;;;5014447;28;20270;-68
2023/04/11 00:23:31;;;;;;;;;;;12.60;99.90;;;;;;5017070;28;19905;-66
2023/04/11 00:25:58;;;;;;;;;;;12.60;99.90;;;;;;5017180;28;19905;-67
2023/04/11 00:28:23;;;;;;;;;;;12.60;99.90;;;;;;5014285;28;19905;-67
2023/04/11 00:30:49;;;;;;;;;;;12.60;99.90;;;;;;5012695;28;20350;-66
2023/04/11 00:33:15;;;;;;;;;;;12.50;99.90;;;;;;5013858;28;19909;-66
2023/04/11 00:35:40;;;;;;;;;;;12.50;99.90;;;;;;5015623;28;19905;-67
2023/04/11 00:38:06;;;;;;;;;;;12.40;99.90;;;;;;5018935;28;20266;-67
2023/04/11 00:40:31;;;;;;;;;;;12.40;99.90;;;;;;5017455;28;20294;-68
2023/04/11 00:42:57;;;;;;;;;;;12.30;99.90;;;;;;5017934;28;20259;-66
2023/04/11 00:45:22;;;;;;;;;;;12.30;99.90;;;;;;5018184;28;19995;-66
2023/04/11 00:47:48;;;;;;;;;;;12.30;99.90;;;;;;5020115;28;19905;-67
2023/04/11 00:50:15;;;;;;;;;;;12.30;99.90;;;;;;5020112;28;19917;-67
2023/04/11 00:52:42;;;;;;;;;;;12.20;99.90;;;;;;5016432;28;19955;-69
2023/04/11 00:55:08;;;;;;;;;;;12.20;99.90;;;;;;5017960;28;20285;-69
2023/04/11 00:57:34;;;;;;;;;;;12.20;99.90;;;;;;5016939;28;20305;-70
2023/04/11 01:00:00;;;;;;;;;;;12.10;99.90;;;;;;5015996;28;19915;-68
2023/04/11 01:02:26;;;;;;;;;;;12.00;99.90;;;;;;5017810;28;19906;-68
2023/04/11 01:04:52;;;;;;;;;;;11.90;99.90;;;;;;5017617;28;19959;-68
2023/04/11 01:07:18;;;;;;;;;;;11.90;99.90;;;;;;5017709;28;20289;-68
2023/04/11 01:09:44;;;;;;;;;;;11.80;99.90;;;;;;5015751;28;20032;-68
2023/04/11 01:12:11;;;;;;;;;;;11.70;99.90;;;;;;5017975;28;20285;-69
2023/04/11 01:14:37;;;;;;;;;;;11.70;99.90;;;;;;5020530;28;20358;-69
2023/04/11 01:17:02;;;;;;;;;;;11.70;99.90;;;;;;5017563;28;20000;-68
2023/04/11 01:19:28;;;;;;;;;;;11.70;99.90;;;;;;5015957;28;20412;-69
2023/04/11 01:21:54;;;;;;;;;;;11.60;99.90;;;;;;5015937;28;19952;-67
2023/04/11 01:24:20;;;;;;;;;;;11.60;99.90;;;;;;5017021;28;20322;-68
2023/04/11 01:26:45;;;;;;;;;;;11.60;99.90;;;;;;5016900;28;19905;-68
2023/04/11 01:29:11;;;;;;;;;;;11.60;99.90;;;;;;5016611;28;19917;-68
2023/04/11 01:31:37;;;;;;;;;;;11.60;99.90;;;;;;5015850;28;19905;-67
2023/04/11 01:34:03;;;;;;;;;;;11.60;99.90;;;;;;5018018;28;20424;-68
2023/04/11 01:36:30;;;;;;;;;;;11.50;99.90;;;;;;5015984;28;19909;-68
2023/04/11 01:38:55;;;;;;;;;;;11.50;99.90;;;;;;5015903;28;20373;-67
2023/04/11 01:41:22;;;;;;;;;;;11.40;99.90;;;;;;5015686;28;19911;-67
2023/04/11 01:43:47;;;;;;;;;;;11.40;99.90;;;;;;5015422;28;20293;-67
2023/04/11 01:46:14;;;;;;;;;;;11.30;99.90;;;;;;5016124;28;19920;-67
2023/04/11 01:48:39;;;;;;;;;;;11.30;99.90;;;;;;5016335;28;19906;-66
2023/04/11 01:51:06;;;;;;;;;;;11.30;99.90;;;;;;5016150;28;19910;-68
2023/04/11 01:53:31;;;;;;;;;;;11.40;99.90;;;;;;5017150;28;20049;-69
2023/04/11 01:55:57;;;;;;;;;;;11.50;99.90;;;;;;5016436;28;19941;-68
2023/04/11 01:58:22;;;;;;;;;;;11.60;99.90;;;;;;5016515;28;19905;-67
2023/04/11 02:00:47;;;;;;;;;;;11.70;99.90;;;;;;5016631;28;19917;-62
2023/04/11 02:03:13;;;;;;;;;;;11.50;99.90;;;;;;5016182;28;19909;-62
2023/04/11 02:05:38;;;;;;;;;;;11.40;99.90;;;;;;5016394;28;19905;-63
2023/04/11 02:08:04;;;;;;;;;;;11.20;99.90;;;;;;5021019;28;20281;-62
2023/04/11 02:10:30;;;;;;;;;;;11.00;99.90;;;;;;5017032;28;19916;-61
2023/04/11 02:12:55;;;;;;;;;;;11.00;99.90;;;;;;5016959;28;20374;-61
2023/04/11 02:15:21;;;;;;;;;;;10.90;99.90;;;;;;5017368;28;19996;-61
2023/04/11 02:17:47;;;;;;;;;;;10.80;99.90;;;;;;5020349;28;19991;-61
2023/04/11 02:20:13;;;;;;;;;;;10.70;99.90;;;;;;5017198;28;19909;-64
2023/04/11 02:22:38;;;;;;;;;;;10.80;99.90;;;;;;5016841;28;19905;-62
2023/04/11 02:25:05;;;;;;;;;;;10.80;99.90;;;;;;5015894;28;20330;-63
2023/04/11 02:27:31;;;;;;;;;;;10.90;99.90;;;;;;5015709;28;19955;-62
2023/04/11 02:29:56;;;;;;;;;;;11.10;99.90;;;;;;5015989;28;19945;-62
2023/04/11 02:32:21;;;;;;;;;;;11.10;99.90;;;;;;5015469;28;19937;-62
2023/04/11 02:34:47;;;;;;;;;;;11.10;99.90;;;;;;5015836;28;19905;-63
2023/04/11 02:37:12;;;;;;;;;;;11.20;99.90;;;;;;5015785;28;19956;-62
2023/04/11 02:39:38;;;;;;;;;;;11.10;99.90;;;;;;5014312;28;20005;-62
2023/04/11 02:42:03;;;;;;;;;;;11.00;99.90;;;;;;5015877;28;20358;-63
2023/04/11 02:44:29;;;;;;;;;;;11.10;99.90;;;;;;5015423;28;20324;-62
2023/04/11 02:46:56;;;;;;;;;;;11.20;99.90;;;;;;5016088;28;19915;-64
2023/04/11 02:49:22;;;;;;;;;;;11.20;99.90;;;;;;5015491;28;20004;-62
2023/04/11 02:51:47;;;;;;;;;;;11.30;99.90;;;;;;5019773;28;20006;-62
2023/04/11 02:54:12;;;;;;;;;;;11.10;99.90;;;;;;5018849;28;19910;-62
2023/04/11 02:56:38;;;;;;;;;;;10.90;99.90;;;;;;5018505;28;19995;-63
2023/04/11 02:59:05;;;;;;;;;;;10.70;99.90;;;;;;5014770;28;19912;-62
2023/04/11 03:01:30;;;;;;;;;;;10.80;99.90;;;;;;5016079;28;19921;-63
2023/04/11 03:03:56;;;;;;;;;;;10.70;99.90;;;;;;5016049;28;19905;-63
2023/04/11 03:06:22;;;;;;;;;;;10.70;99.90;;;;;;5016593;28;19955;-63
2023/04/11 03:08:48;;;;;;;;;;;10.70;99.90;;;;;;5016323;28;19909;-62
2023/04/11 03:11:14;;;;;;;;;;;10.50;99.90;;;;;;5015908;28;19913;-63
2023/04/11 03:13:40;;;;;;;;;;;10.50;99.90;;;;;;5015248;28;19906;-61
2023/04/11 03:16:06;;;;;;;;;;;10.50;99.90;;;;;;5015366;28;19909;-62
2023/04/11 03:18:32;;;;;;;;;;;10.60;99.90;;;;;;5014500;28;20361;-62
2023/04/11 03:20:57;;;;;;;;;;;10.60;99.90;;;;;;5014974;28;19906;-63
2023/04/11 03:23:23;;;;;;;;;;;10.70;99.90;;;;;;5013426;28;19909;-63
2023/04/11 03:25:49;;;;;;;;;;;10.70;99.90;;;;;;5013354;28;19948;-63
2023/04/11 03:28:15;;;;;;;;;;;10.70;99.90;;;;;;5014901;28;19941;-62
2023/04/11 03:30:41;;;;;;;;;;;10.70;99.90;;;;;;5014558;28;20354;-63
2023/04/11 03:33:07;;;;;;;;;;;10.70;99.90;;;;;;5014312;28;19905;-63
2023/04/11 03:35:32;;;;;;;;;;;10.60;99.90;;;;;;5015270;28;19906;-63
2023/04/11 03:37:58;;;;;;;;;;;10.50;99.90;;;;;;5014570;28;19948;-63
2023/04/11 03:40:23;;;;;;;;;;;10.50;99.90;;;;;;5014504;28;19906;-62
2023/04/11 03:42:49;;;;;;;;;;;10.50;99.90;;;;;;5014275;28;19905;-62
2023/04/11 03:45:15;;;;;;;;;;;10.50;99.90;;;;;;5014501;28;19933;-63
2023/04/11 03:47:40;;;;;;;;;;;10.50;99.90;;;;;;5013065;28;19905;-61
2023/04/11 03:50:06;;;;;;;;;;;10.60;99.90;;;;;;5014756;28;19916;-63
2023/04/11 03:52:32;;;;;;;;;;;10.60;99.90;;;;;;5013822;28;19912;-62
2023/04/11 03:54:57;;;;;;;;;;;10.70;99.90;;;;;;5014970;28;19905;-62
2023/04/11 03:57:25;;;;;;;;;;;10.60;99.90;;;;;;5014863;28;20000;-62
2023/04/11 03:59:51;;;;;;;;;;;10.50;99.90;;;;;;5014015;28;19906;-64
2023/04/11 04:02:16;;;;;;;;;;;10.60;99.90;;;;;;5014184;28;19920;-62
2023/04/11 04:04:45;;;;;;;;;;;10.70;99.90;;;;;;5014120;28;19957;-62
2023/04/11 04:07:11;;;;;;;;;;;10.70;99.90;;;;;;5014451;28;19968;-63
2023/04/11 04:09:37;;;;;;;;;;;10.70;99.90;;;;;;5013756;28;19910;-63
2023/04/11 04:12:02;;;;;;;;;;;10.70;99.90;;;;;;5014510;28;20410;-63
2023/04/11 04:14:28;;;;;;;;;;;10.70;99.90;;;;;;5014992;28;19905;-63
2023/04/11 04:16:53;;;;;;;;;;;10.70;99.90;;;;;;5014577;28;19911;-62
2023/04/11 04:19:19;;;;;;;;;;;10.70;99.90;;;;;;5012687;28;19956;-62
2023/04/11 04:21:45;;;;;;;;;;;10.60;99.90;;;;;;5014250;28;19909;-62
2023/04/11 04:24:11;;;;;;;;;;;10.50;99.90;;;;;;5014491;28;19905;-63
2023/04/11 04:26:37;;;;;;;;;;;10.50;99.90;;;;;;5014492;28;19912;-63
2023/04/11 04:29:08;;;;;;;;;;;10.40;99.90;;;;;;5014528;28;19910;-63
2023/04/11 04:31:34;;;;;;;;;;;10.40;99.90;;;;;;5014087;28;20274;-63
2023/04/11 04:34:07;;;;;;;;;;;10.40;99.90;;;;;;5015115;28;19951;-63
2023/04/11 04:36:45;;;;;;;;;;;10.40;99.90;;;;;;5016142;28;20381;-63
2023/04/11 04:39:17;;;;;;;;;;;10.40;99.90;;;;;;5016683;28;19946;-64
2023/04/11 04:41:56;;;;;;;;;;;10.50;99.90;;;;;;5017697;28;19906;-63
2023/04/11 04:44:25;;;;;;;;;;;10.60;99.90;;;;;;4999263;28;20333;-64
2023/04/11 04:46:54;;;;;;;;;;;10.50;99.90;;;;;;5005438;28;19906;-64
2023/04/11 04:49:19;;;;;;;;;;;10.40;99.90;;;;;;5018160;28;20011;-63
2023/04/11 04:51:45;;;;;;;;;;;10.50;99.90;;;;;;5020439;28;19987;-63
2023/04/11 04:54:10;;;;;;;;;;;10.50;99.90;;;;;;5019091;28;19909;-62
2023/04/11 04:56:36;;;;;;;;;;;10.40;99.90;;;;;;5017108;28;20412;-63
2023/04/11 04:59:02;;;;;;;;;;;10.30;99.90;;;;;;5017757;28;19905;-64
2023/04/11 05:01:27;;;;;;;;;;;10.30;99.90;;;;;;5015720;28;19924;-64
2023/04/11 05:03:59;;;;;;;;;;;10.20;99.90;;;;;;5014463;28;19905;-62
2023/04/11 05:06:28;;;;;;;;;;;10.20;99.90;;;;;;5013867;28;19909;-62
2023/04/11 05:08:57;;;;;;;;;;;10.20;99.90;;;;;;5013677;28;20389;-62
2023/04/11 05:11:26;;;;;;;;;;;10.20;99.90;;;;;;5014294;28;19905;-62
2023/04/11 05:13:52;;;;;;;;;;;10.20;99.90;;;;;;5013791;28;19906;-62
2023/04/11 05:16:18;;;;;;;;;;;10.30;99.90;;;;;;5012786;28;19912;-62
2023/04/11 05:18:44;;;;;;;;;;;10.20;99.90;;;;;;5013222;28;19905;-64
2023/04/11 05:21:10;;;;;;;;;;;10.40;99.90;;;;;;5011424;28;19905;-62
2023/04/11 05:23:36;;;;;;;;;;;10.30;99.90;;;;;;5015611;28;20388;-62
2023/04/11 05:26:01;;;;;;;;;;;10.20;99.90;;;;;;5011839;28;19909;-62
2023/04/11 05:28:27;;;;;;;;;;;10.10;99.90;;;;;;5008582;28;19909;-62
2023/04/11 05:30:52;;;;;;;;;;;10.20;99.90;;;;;;4999096;28;19909;-63
2023/04/11 05:33:18;;;;;;;;;;;10.10;99.90;;;;;;5000254;28;19906;-63
2023/04/11 05:35:43;;;;;;;;;;;10.00;99.90;;;;;;5006715;28;19909;-62
2023/04/11 05:38:09;;;;;;;;;;;9.90;99.90;;;;;;5016536;28;19995;-70
2023/04/11 05:40:37;;;;;;;;;;;10.00;99.90;;;;;;5018912;28;20390;-70
2023/04/11 05:43:04;;;;;;;;;;;10.00;99.90;;;;;;5008054;28;19909;-69
2023/04/11 05:45:29;;;;;;;;;;;10.10;99.90;;;;;;4997764;28;19906;-66
2023/04/11 05:47:55;;;;;;;;;;;10.10;99.90;;;;;;5016282;28;20138;-66
2023/04/11 05:50:21;;;;;;;;;;;10.20;99.90;;;;;;5015748;28;20370;-68
2023/04/11 05:52:46;;;;;;;;;;;10.20;99.90;;;;;;5017210;28;19912;-66
2023/04/11 05:55:11;;;;;;;;;;;10.20;99.90;;;;;;5018125;28;19929;-66
2023/04/11 05:57:37;;;;;;;;;;;10.20;99.90;;;;;;5017940;28;19906;-66
2023/04/11 06:00:11;;;;;;;;;;;10.30;99.90;;;;;;5017147;28;19913;-65
2023/04/11 06:02:37;;;;;;;;;;;10.20;99.90;;;;;;5016434;28;19913;-66
2023/04/11 06:05:03;;;;;;;;;;;10.30;99.90;;;;;;4998519;28;19906;-63
2023/04/11 06:07:31;;;;;;;;;;;10.30;99.90;;;;;;4997344;28;20294;-63
2023/04/11 06:09:56;;;;;;;;;;;10.30;99.90;;;;;;4996844;28;19941;-65
2023/04/11 06:12:22;;;;;;;;;;;10.20;99.90;;;;;;4996938;28;19905;-65
2023/04/11 06:14:47;;;;;;;;;;;10.20;99.90;;;;;;4996544;28;19905;-65
2023/04/11 06:17:13;;;;;;;;;;;10.10;99.90;;;;;;4996485;28;19906;-65
2023/04/11 06:19:38;;;;;;;;;;;10.10;99.90;;;;;;4994785;28;19906;-63
2023/04/11 06:22:03;;;;;;;;;;;10.20;99.90;;;;;;4996380;28;19906;-63
2023/04/11 06:24:36;;;;;;;;;;;10.30;99.90;;;;;;4995185;28;20379;-64
2023/04/11 06:27:02;;;;;;;;;;;10.30;99.90;;;;;;5012267;28;19910;-64
2023/04/11 06:29:27;;;;;;;;;;;10.40;99.90;;;;;;4996745;28;20329;-66
2023/04/11 06:31:53;;;;;;;;;;;10.50;99.90;;;;;;4995900;28;19906;-65
2023/04/11 06:34:18;;;;;;;;;;;10.50;99.90;;;;;;4995752;28;19906;-65
2023/04/11 06:36:46;;;;;;;;;;;10.60;99.90;;;;;;4996155;28;20021;-64
2023/04/11 06:39:12;;;;;;;;;;;10.60;99.90;;;;;;4996102;28;19942;-68
2023/04/11 06:41:37;;;;;;;;;;;10.60;99.90;;;;;;4996153;28;19913;-65
2023/04/11 06:44:03;;;;;;;;;;;10.60;99.90;;;;;;4995352;28;19905;-65
2023/04/11 06:46:28;;;;;;;;;;;10.60;99.90;;;;;;4996214;28;19952;-63
2023/04/11 06:48:54;;;;;;;;;;;10.70;99.90;;;;;;4995636;28;19910;-63
2023/04/11 06:51:20;;;;;;;;;;;10.80;99.90;;;;;;4995694;28;19924;-64
2023/04/11 06:53:45;;;;;;;;;;;10.90;99.90;;;;;;5003352;28;19913;-64
2023/04/11 06:56:11;;;;;;;;;;;11.00;99.90;;;;;;5011009;28;19917;-63
2023/04/11 06:58:36;;;;;;;;;;;11.10;99.90;;;;;;5004451;28;20019;-64
2023/04/11 07:01:02;;;;;;;;;;;11.20;99.90;;;;;;5016596;28;19992;-64
2023/04/11 07:03:27;;;;;;;;;;;11.40;99.90;;;;;;5015580;28;19911;-64
2023/04/11 07:05:52;;;;;;;;;;;11.60;99.90;;;;;;5016838;28;19906;-64
2023/04/11 07:08:18;;;;;;;;;;;11.70;99.90;;;;;;5016241;28;19906;-63
2023/04/11 07:10:43;;;;;;;;;;;11.80;99.90;;;;;;5015989;28;19913;-65
2023/04/11 07:13:09;;;;;;;;;;;11.80;99.90;;;;;;5003865;28;20016;-65
2023/04/11 07:15:34;;;;;;;;;;;12.00;99.90;;;;;;5005711;28;19906;-64
2023/04/11 07:18:00;;;;;;;;;;;12.10;99.90;;;;;;5013725;28;19999;-64
2023/04/11 07:20:26;;;;;;;;;;;12.20;99.90;;;;;;5016456;28;19909;-64
2023/04/11 07:22:51;;;;;;;;;;;12.10;99.90;;;;;;5016524;28;19912;-64
2023/04/11 07:25:21;;;;;;;;;;;11.90;99.90;;;;;;5010384;28;19910;-65
2023/04/11 07:27:48;;;;;;;;;;;11.80;99.90;;;;;;5006483;28;19915;-69
2023/04/11 07:30:14;;;;;;;;;;;11.70;99.90;;;;;;4998557;28;19961;-67
2023/04/11 07:32:39;;;;;;;;;;;11.80;99.90;;;;;;4995350;28;19905;-63
2023/04/11 07:35:05;;;;;;;;;;;11.90;99.90;;;;;;4995197;28;19993;-63
2023/04/11 07:37:31;;;;;;;;;;;12.20;99.90;;;;;;4995116;28;20000;-65
2023/04/11 07:39:56;;;;;;;;;;;12.40;99.90;;;;;;4994828;28;19909;-65
2023/04/11 07:42:22;;;;;;;;;;;12.40;99.90;;;;;;4994207;28;19905;-65
2023/04/11 07:44:47;;;;;;;;;;;12.50;99.90;;;;;;4993678;28;19960;-67
2023/04/11 07:47:13;;;;;;;;;;;12.60;99.90;;;;;;4994412;28;19906;-65
2023/04/11 07:49:38;;;;;;;;;;;12.60;99.90;;;;;;5005136;28;19917;-67
2023/04/11 07:52:04;;;;;;;;;;;12.70;99.90;;;;;;5014053;28;19905;-68
2023/04/11 07:54:29;;;;;;;;;;;12.60;99.90;;;;;;5014402;28;19905;-68
2023/04/11 07:56:55;;;;;;;;;;;12.50;99.90;;;;;;5014473;28;19909;-63
2023/04/11 07:59:21;;;;;;;;;;;12.30;99.90;;;;;;5014108;28;19936;-63
2023/04/11 08:01:46;;;;;;;;;;;12.20;99.90;;;;;;5028542;23;19972;-67
2023/04/11 08:04:12;;;;;;;;;;;12.10;99.90;;;;;;5001828;28;20333;-68
2023/04/11 08:06:38;;;;;;;;;;;12.00;99.90;;;;;;4998969;28;19909;-68
2023/04/11 08:09:04;;;;;;;;;;;11.90;99.90;;;;;;4999007;28;19980;-68
2023/04/11 08:11:30;;;;;;;;;;;11.80;99.90;;;;;;4999795;28;19956;-68
2023/04/11 08:13:55;;;;;;;;;;;11.80;99.90;;;;;;5000719;28;19906;-69
2023/04/11 08:16:21;;;;;;;;;;;11.70;99.90;;;;;;5001920;28;20375;-69
2023/04/11 08:18:46;;;;;;;;;;;11.50;99.90;;;;;;5003343;28;19921;-69
2023/04/11 08:21:12;;;;;;;;;;;11.30;99.90;;;;;;4999342;28;20001;-67
2023/04/11 08:23:38;;;;;;;;;;;11.10;99.90;;;;;;4998258;28;19956;-67
2023/04/11 08:26:04;;;;;;;;;;;10.90;99.90;;;;;;4997330;28;20327;-68
2023/04/11 08:28:30;;;;;;;;;;;10.90;99.90;;;;;;4973820;28;19952;-67
2023/04/11 08:30:57;;;;;;;;;;;11.10;99.90;;;;;;4971839;28;19917;-66
2023/04/11 08:33:26;;;;;;;;;;;11.50;99.90;;;;;;4970718;28;19949;-67
2023/04/11 08:35:52;;;;;;;;;;;11.90;99.90;;;;;;4988744;28;19917;-67
2023/04/11 08:38:17;;;;;;;;;;;12.50;99.90;;;;;;4974452;28;20021;-68
2023/04/11 08:40:43;;;;;;;;;;;13.20;99.90;;;;;;4973239;28;19929;-67
2023/04/11 08:43:10;;;;;;;;;;;13.60;99.90;;;;;;4974355;28;20004;-67
2023/04/11 08:45:41;;;;;;;;;;;14.30;99.90;;;;;;4974887;28;19913;-67
2023/04/11 08:48:07;;;;;;;;;;;15.10;99.90;;;;;;4968943;28;19917;-67
2023/04/11 08:50:33;;;;;;;;;;;16.00;99.90;;;;;;4955731;28;19965;-67
2023/04/11 08:53:01;;;;;;;;;;;16.70;99.90;;;;;;4955263;28;20397;-72
2023/04/11 08:55:26;;;;;;;;;;;17.60;99.90;;;;;;4970344;28;19907;-69
2023/04/11 08:57:52;;;;;;;;;;;18.00;99.50;;;;;;4957914;28;20402;-69
2023/04/11 09:00:22;;;;;;;;;;;18.00;97.80;;;;;;4959218;28;19914;-70
2023/04/11 09:02:56;;;;;;;;;;;17.80;97.80;;;;;;4975724;28;20338;-72
2023/04/11 09:05:35;;;;;;;;;;;18.40;97.00;;;;;;4977712;28;19986;-70
2023/04/11 09:08:02;;;;;;;;;;;19.90;94.40;;;;;;4978766;28;19906;-70
2023/04/11 09:10:27;;;;;;;;;;;20.70;91.10;;;;;;4977789;28;19910;-70
2023/04/11 09:12:53;;;;;;;;;;;20.40;88.10;;;;;;4981455;28;20306;-69
2023/04/11 09:15:20;;;;;;;;;;;20.60;89.90;;;;;;4988901;28;19952;-70
2023/04/11 09:17:46;;;;;;;;;;;20.20;86.70;;;;;;4992135;28;19913;-70
2023/04/11 09:20:30;;;;;;;;;;;19.40;88.10;;;;;;4989686;28;19906;-70
2023/04/11 09:22:57;;;;;;;;;;;19.20;88.60;;;;;;4985107;28;19906;-69
2023/04/11 09:25:23;;;;;;;;;;;19.90;85.60;;;;;;4979023;28;19906;-69
2023/04/11 09:27:49;;;;;;;;;;;19.90;84.50;;;;;;4978982;28;19913;-70
2023/04/11 09:30:21;;;;;;;;;;;20.00;82.10;;;;;;4977305;28;19910;-69
2023/04/11 09:32:47;;;;;;;;;;;20.10;82.90;;;;;;4977966;28;19906;-70
2023/04/11 09:35:23;;;;;;;;;;;19.10;83.90;;;;;;4993169;28;19906;-70
2023/04/11 09:37:51;;;;;;;;;;;19.60;83.60;;;;;;4977860;28;19912;-70
2023/04/11 09:40:17;;;;;;;;;;;20.90;81.50;;;;;;4976962;28;19941;-68
2023/04/11 09:42:43;;;;;;;;;;;20.00;82.30;;;;;;4978234;28;20209;-69
2023/04/11 09:45:19;;;;;;;;;;;18.20;84.90;;;;;;4977806;28;20318;-69
2023/04/11 09:47:46;;;;;;;;;;;17.20;88.40;;;;;;4977586;28;19918;-70
2023/04/11 09:50:11;;;;;;;;;;;17.00;89.70;;;;;;4976830;28;19910;-70
2023/04/11 09:52:41;;;;;;;;;;;17.80;89.00;;;;;;4992538;28;19992;-70
2023/04/11 09:55:11;;;;;;;;;;;19.20;87.00;;;;;;4977615;28;19906;-70
2023/04/11 09:57:44;;;;;;;;;;;19.10;83.50;;;;;;4978128;28;20278;-71
2023/04/11 10:00:15;;;;;;;;;;;18.30;84.00;;;;;;4978495;28;20355;-70
2023/04/11 10:02:42;;;;;;;;;;;17.00;87.50;;;;;;4993238;28;20008;-70
2023/04/11 10:05:09;;;;;;;;;;;16.00;90.70;;;;;;5012372;28;20285;-68
2023/04/11 10:07:52;;;;;;;;;;;15.30;91.80;;;;;;4996204;28;19905;-72
2023/04/11 10:10:22;;;;;;;;;;;14.70;92.50;;;;;;4995507;28;19918;-69
2023/04/11 10:12:48;;;;;;;;;;;15.00;92.80;;;;;;4995198;28;20358;-69
2023/04/11 10:15:14;;;;;;;;;;;15.90;91.90;;;;;;4996366;28;19905;-69
2023/04/11 10:17:40;;;;;;;;;;;16.20;90.70;;;;;;4994881;28;19912;-68
2023/04/11 10:20:45;;;;;;;;;;;16.20;91.30;;;;;;5011511;28;19905;-68
2023/04/11 10:23:11;;;;;;;;;;;16.00;91.00;;;;;;4936622;29;19906;-67
2023/04/11 10:25:58;;;;;;;;;;;15.40;91.60;;;;;;4931937;29;19943;-67
2023/04/11 10:28:36;;;;;;;;;;;15.40;92.00;;;;;;4901952;29;20001;-67
2023/04/11 10:31:03;;;;;;;;;;;15.50;91.80;;;;;;4917352;29;19912;-68
2023/04/11 10:33:30;;;;;;;;;;;16.00;91.20;;;;;;4917466;29;19911;-68
2023/04/11 10:35:56;;;;;;;;;;;16.40;91.30;;;;;;4901679;29;19911;-67
2023/04/11 10:38:46;;;;;;;;;;;16.40;90.40;;;;;;4917268;29;19914;-68
2023/04/11 10:41:17;;;;;;;;;;;16.50;90.40;;;;;;4917257;29;20281;-68
2023/04/11 10:43:43;;;;;;;;;;;17.40;89.20;;;;;;4917107;29;20002;-68
2023/04/11 10:46:26;;;;;;;;;;;17.70;88.00;;;;;;4901068;29;19910;-68
2023/04/11 10:48:55;;;;;;;;;;;17.60;87.90;;;;;;4917376;29;19907;-67
2023/04/11 10:51:21;;;;;;;;;;;17.90;86.30;;;;;;4915642;29;19911;-67
2023/04/11 10:53:47;;;;;;;;;;;17.90;85.00;;;;;;4943325;28;19994;-68
2023/04/11 10:56:12;;;;;;;;;;;18.00;84.90;;;;;;4976517;28;19906;-68
2023/04/11 10:58:38;;;;;;;;;;;17.90;84.30;;;;;;4990843;28;20381;-68
2023/04/11 11:01:13;;;;;;;;;;;17.60;83.90;;;;;;4976029;28;20307;-67
2023/04/11 11:03:39;;;;;;;;;;;17.10;85.90;;;;;;4975831;28;20294;-67
2023/04/11 11:06:05;;;;;;;;;;;16.80;85.30;;;;;;4974939;28;19906;-66
2023/04/11 11:08:41;;;;;;;;;;;17.00;84.40;;;;;;4991010;28;19952;-69
2023/04/11 11:11:07;;;;;;;;;;;16.80;85.10;;;;;;4976246;28;19910;-68
2023/04/11 11:13:40;;;;;;;;;;;16.80;85.40;;;;;;4977337;28;19906;-68
2023/04/11 11:16:06;;;;;;;;;;;16.50;84.50;;;;;;4975727;28;19997;-67
2023/04/11 11:18:32;;;;;;;;;;;16.30;85.00;;;;;;4990151;28;19906;-67
2023/04/11 11:20:57;;;;;;;;;;;16.30;85.30;;;;;;4974838;28;20342;-68
2023/04/11 11:23:23;;;;;;;;;;;16.30;86.40;;;;;;4975711;28;20036;-68
2023/04/11 11:25:55;;;;;;;;;;;16.20;86.50;;;;;;4991939;28;19913;-68
2023/04/11 11:28:21;;;;;;;;;;;16.00;85.30;;;;;;4977293;28;19913;-68
2023/04/11 11:30:51;;;;;;;;;;;16.10;85.90;;;;;;4976943;28;19926;-68
2023/04/11 11:33:17;;;;;;;;;;;16.00;85.60;;;;;;5009789;28;19937;-69
2023/04/11 11:35:44;;;;;;;;;;;15.80;86.60;;;;;;4995061;28;19906;-69
2023/04/11 11:38:10;;;;;;;;;;;15.80;86.40;;;;;;4995061;28;19914;-68
2023/04/11 11:40:36;;;;;;;;;;;15.70;86.70;;;;;;4994579;28;19912;-67
2023/04/11 11:43:01;;;;;;;;;;;15.60;87.70;;;;;;4993819;28;20000;-68
2023/04/11 11:45:27;;;;;;;;;;;15.80;87.90;;;;;;4993758;28;20340;-68
2023/04/11 11:47:52;;;;;;;;;;;16.20;86.30;;;;;;4994575;28;19960;-67
2023/04/11 11:50:28;;;;;;;;;;;16.10;85.40;;;;;;4995272;28;20012;-68
2023/04/11 11:52:54;;;;;;;;;;;16.00;86.40;;;;;;4995223;28;19957;-68
2023/04/11 11:55:21;;;;;;;;;;;16.00;86.00;;;;;;4994481;28;19906;-67
2023/04/11 11:57:47;;;;;;;;;;;15.80;85.40;;;;;;4993380;28;19906;-67
2023/04/11 12:00:13;;;;;;;;;;;15.90;85.10;;;;;;5009888;28;19906;-68
2023/04/11 12:02:40;;;;;;;;;;;15.70;84.90;;;;;;4978779;28;20316;-68
2023/04/11 12:05:07;;;;;;;;;;;15.30;86.60;;;;;;4976029;28;19953;-68
2023/04/11 12:07:33;;;;;;;;;;;14.70;88.40;;;;;;4973986;28;19914;-67
2023/04/11 12:09:59;;;;;;;;;;;14.30;90.10;;;;;;4974037;28;20009;-68
2023/04/11 12:12:30;;;;;;;;;;;14.40;90.40;;;;;;4975122;28;19992;-68
2023/04/11 12:14:56;;;;;;;;;;;14.50;91.70;;;;;;4975717;28;19961;-68
2023/04/11 12:17:21;;;;;;;;;;;14.60;92.60;;;;;;4973310;28;19958;-68
2023/04/11 12:19:47;;;;;;;;;;;14.80;91.80;;;;;;4979178;28;19958;-68
2023/04/11 12:22:12;;;;;;;;;;;15.10;91.30;;;;;;4979520;28;19906;-68
2023/04/11 12:24:37;;;;;;;;;;;15.20;91.00;;;;;;4974446;28;19910;-68
2023/04/11 12:27:03;;;;;;;;;;;15.30;90.60;;;;;;4975354;28;19937;-68
2023/04/11 12:29:29;;;;;;;;;;;15.40;91.40;;;;;;4975258;28;19910;-66
2023/04/11 12:31:54;;;;;;;;;;;15.60;91.30;;;;;;4968077;28;19949;-65
2023/04/11 12:34:20;;;;;;;;;;;15.60;90.70;;;;;;4960326;28;19913;-65
2023/04/11 12:36:45;;;;;;;;;;;15.50;90.40;;;;;;4972873;28;19910;-65
2023/04/11 12:39:10;;;;;;;;;;;15.40;90.40;;;;;;4979852;28;19910;-66
2023/04/11 12:41:36;;;;;;;;;;;15.20;90.60;;;;;;4981056;28;19944;-66
2023/04/11 12:44:02;;;;;;;;;;;15.10;90.80;;;;;;4980798;28;19913;-66
2023/04/11 12:46:28;;;;;;;;;;;14.90;88.70;;;;;;4966072;28;19929;-67
2023/04/11 12:48:53;;;;;;;;;;;14.60;90.20;;;;;;4962289;29;20311;-67
2023/04/11 12:51:19;;;;;;;;;;;14.40;89.90;;;;;;4981654;28;19906;-67
2023/04/11 12:53:44;;;;;;;;;;;14.30;89.60;;;;;;4973807;28;19968;-67
2023/04/11 12:56:10;;;;;;;;;;;14.40;90.00;;;;;;4979009;28;19907;-66
2023/04/11 12:58:35;;;;;;;;;;;14.30;90.10;;;;;;4978593;28;19929;-65
2023/04/11 13:01:00;;;;;;;;;;;14.20;90.00;;;;;;4978394;28;19914;-70
2023/04/11 13:03:27;;;;;;;;;;;14.20;90.50;;;;;;4977478;28;19949;-71
2023/04/11 13:05:53;;;;;;;;;;;14.30;90.90;;;;;;4977416;28;19913;-70
2023/04/11 13:08:18;;;;;;;;;;;14.30;91.10;;;;;;4977358;28;19907;-72
2023/04/11 13:10:44;;;;;;;;;;;14.30;91.30;;;;;;4977993;28;20054;-68
2023/04/11 13:13:10;;;;;;;;;;;14.50;91.50;;;;;;4992855;28;19910;-68
2023/04/11 13:15:35;;;;;;;;;;;14.70;91.30;;;;;;4973048;28;19910;-67
2023/04/11 13:18:00;;;;;;;;;;;14.70;91.30;;;;;;4976328;28;20337;-69
2023/04/11 13:20:26;;;;;;;;;;;14.80;89.90;;;;;;4976072;28;19914;-68
2023/04/11 13:22:51;;;;;;;;;;;15.10;88.80;;;;;;4976825;28;19980;-67
2023/04/11 13:25:17;;;;;;;;;;;15.30;87.30;;;;;;4973341;28;19957;-68
2023/04/11 13:27:43;;;;;;;;;;;15.30;87.10;;;;;;4973570;28;19912;-68
2023/04/11 13:30:09;;;;;;;;;;;15.40;86.00;;;;;;4975487;28;20004;-68
2023/04/11 13:32:34;;;;;;;;;;;15.60;85.80;;;;;;4977240;28;20283;-68
2023/04/11 13:35:00;;;;;;;;;;;15.70;84.90;;;;;;4967988;28;20000;-68
2023/04/11 13:37:26;;;;;;;;;;;15.60;84.10;;;;;;4973611;28;19911;-69
2023/04/11 13:39:51;;;;;;;;;;;15.70;83.80;;;;;;4965085;28;19906;-69
2023/04/11 13:42:16;;;;;;;;;;;15.90;84.00;;;;;;4981480;28;19910;-71
2023/04/11 13:44:42;;;;;;;;;;;16.00;83.20;;;;;;4958946;29;20087;-73
2023/04/11 13:47:08;;;;;;;;;;;16.00;82.30;;;;;;4988002;28;19926;-69
2023/04/11 13:49:33;;;;;;;;;;;15.90;82.60;;;;;;4977146;28;20377;-69
2023/04/11 13:51:59;;;;;;;;;;;16.00;84.40;;;;;;4977230;28;19928;-70
2023/04/11 13:54:25;;;;;;;;;;;16.00;81.50;;;;;;4973513;28;19910;-68
2023/04/11 13:56:51;;;;;;;;;;;16.00;80.70;;;;;;4967065;28;19938;-67
2023/04/11 13:59:16;;;;;;;;;;;15.90;81.10;;;;;;4958068;28;20323;-67
2023/04/11 14:01:42;;;;;;;;;;;15.90;81.70;;;;;;4957651;28;19924;-67
2023/04/11 14:04:08;;;;;;;;;;;16.10;80.50;;;;;;4958290;29;19917;-67
2023/04/11 14:06:34;;;;;;;;;;;16.20;79.90;;;;;;4958860;29;19906;-67
2023/04/11 14:09:00;;;;;;;;;;;16.30;78.60;;;;;;4958184;28;19997;-68
2023/04/11 14:11:25;;;;;;;;;;;16.30;79.00;;;;;;4957974;28;20009;-68
2023/04/11 14:13:51;;;;;;;;;;;16.40;79.30;;;;;;4976370;28;19957;-69